createdAt,value
2022-10-06T00:01:29.056Z,16.70
2022-10-06T00:04:05.469Z,16.70
2022-10-06T00:06:34.907Z,16.70
2022-10-06T00:09:03.716Z,16.80
2022-10-06T00:11:34.311Z,16.80
2022-10-06T00:14:03.203Z,16.80
2022-10-06T00:16:31.798Z,16.80
2022-10-06T00:19:00.600Z,16.70
2022-10-06T00:21:29.298Z,16.80
2022-10-06T00:23:58.768Z,16.70
2022-10-06T00:26:28.153Z,16.60
2022-10-06T00:28:58.663Z,16.50
2022-10-06T00:31:28.296Z,16.40
2022-10-06T00:33:57.319Z,16.50
2022-10-06T00:36:26.058Z,16.60
2022-10-06T00:38:54.803Z,16.60
2022-10-06T00:41:23.651Z,16.60
2022-10-06T00:43:55.463Z,16.70
2022-10-06T00:46:35.591Z,16.70
2022-10-06T00:49:13.607Z,16.60
2022-10-06T00:51:49.760Z,16.60
2022-10-06T00:54:20.920Z,16.70
2022-10-06T00:56:50.278Z,16.70
2022-10-06T00:59:20.955Z,16.60
2022-10-06T01:02:04.755Z,16.60
2022-10-06T01:04:37.007Z,16.60
2022-10-06T01:07:06.299Z,16.60
2022-10-06T01:09:36.862Z,16.60
2022-10-06T01:12:09.943Z,16.50
2022-10-06T01:14:41.552Z,16.50
2022-10-06T01:17:20.774Z,16.40
2022-10-06T01:19:55.982Z,16.40
2022-10-06T01:22:32.253Z,16.40
2022-10-06T01:25:01.895Z,16.40
2022-10-06T01:27:33.486Z,16.30
2022-10-06T01:30:03.394Z,16.30
2022-10-06T01:32:38.713Z,16.20
2022-10-06T01:35:10.840Z,16.20
2022-10-06T01:37:40.923Z,16.20
2022-10-06T01:40:10.810Z,16.20
2022-10-06T01:42:39.937Z,16.10
2022-10-06T01:45:10.071Z,16.00
2022-10-06T01:47:39.304Z,16.00
2022-10-06T01:50:09.606Z,15.90
2022-10-06T01:52:40.627Z,15.90
2022-10-06T01:55:10.250Z,15.80
2022-10-06T01:57:41.352Z,15.80
2022-10-06T02:00:13.149Z,15.70
2022-10-06T02:02:42.025Z,15.70
2022-10-06T02:05:11.324Z,15.50
2022-10-06T02:07:42.130Z,15.40
2022-10-06T02:10:11.540Z,15.40
2022-10-06T02:12:43.060Z,15.40
2022-10-06T02:15:12.633Z,15.30
2022-10-06T02:17:41.843Z,15.30
2022-10-06T02:20:11.131Z,15.20
2022-10-06T02:22:44.986Z,15.10
2022-10-06T02:25:14.135Z,15.10
2022-10-06T02:27:43.053Z,15.10
2022-10-06T02:30:14.646Z,15.00
2022-10-06T02:32:44.316Z,14.90
2022-10-06T02:35:14.087Z,14.90
2022-10-06T02:37:44.164Z,14.80
2022-10-06T02:40:12.931Z,14.80
2022-10-06T02:42:42.013Z,14.70
2022-10-06T02:45:11.425Z,14.70
2022-10-06T02:47:40.445Z,14.60
2022-10-06T02:50:13.939Z,14.60
2022-10-06T02:52:44.019Z,14.50
2022-10-06T02:55:13.352Z,14.50
2022-10-06T02:57:42.431Z,14.50
2022-10-06T03:00:15.124Z,14.50
2022-10-06T03:02:43.956Z,14.50
2022-10-06T03:05:12.763Z,14.60
2022-10-06T03:07:44.878Z,14.70
2022-10-06T03:10:13.465Z,14.70
2022-10-06T03:12:42.114Z,14.80
2022-10-06T03:15:14.392Z,14.80
2022-10-06T03:17:43.497Z,14.90
2022-10-06T03:20:12.107Z,14.90
2022-10-06T03:22:40.816Z,14.90
2022-10-06T03:25:11.717Z,14.90
2022-10-06T03:27:42.076Z,14.90
2022-10-06T03:30:12.165Z,14.80
2022-10-06T03:32:41.952Z,14.90
2022-10-06T03:35:11.693Z,14.90
2022-10-06T03:37:40.464Z,14.90
2022-10-06T03:40:12.368Z,14.90
2022-10-06T03:42:43.688Z,14.90
2022-10-06T03:45:12.625Z,14.90
2022-10-06T03:47:41.168Z,14.80
2022-10-06T03:50:11.335Z,14.70
2022-10-06T03:52:41.126Z,14.70
2022-10-06T03:55:11.426Z,14.60
2022-10-06T03:57:40.196Z,14.40
2022-10-06T04:00:10.439Z,14.30
2022-10-06T04:02:39.418Z,14.30
2022-10-06T04:05:09.360Z,14.20
2022-10-06T04:07:41.980Z,14.20
2022-10-06T04:10:12.771Z,14.10
2022-10-06T04:12:41.639Z,14.10
2022-10-06T04:15:14.313Z,14.00
2022-10-06T04:17:43.216Z,14.00
2022-10-06T04:20:11.898Z,14.00
2022-10-06T04:22:40.553Z,13.90
2022-10-06T04:25:11.671Z,13.90
2022-10-06T04:27:40.700Z,13.90
2022-10-06T04:30:10.808Z,13.80
2022-10-06T04:32:39.597Z,13.70
2022-10-06T04:35:10.297Z,13.70
2022-10-06T04:37:39.490Z,13.60
2022-10-06T04:40:09.992Z,13.60
2022-10-06T04:42:43.517Z,13.60
2022-10-06T04:45:13.106Z,13.60
2022-10-06T04:47:41.963Z,13.60
2022-10-06T04:50:11.639Z,13.60
2022-10-06T04:52:41.307Z,13.70
2022-10-06T04:55:15.001Z,13.60
2022-10-06T04:57:45.207Z,13.60
2022-10-06T05:00:27.014Z,13.60
2022-10-06T05:02:56.859Z,13.50
2022-10-06T05:05:25.793Z,13.50
2022-10-06T05:07:54.804Z,13.60
2022-10-06T05:10:23.504Z,13.70
2022-10-06T05:12:53.661Z,13.70
2022-10-06T05:15:22.282Z,13.70
2022-10-06T05:17:51.078Z,13.60
2022-10-06T05:20:23.297Z,13.50
2022-10-06T05:22:51.827Z,13.50
2022-10-06T05:25:20.714Z,13.40
2022-10-06T05:27:49.797Z,13.40
2022-10-06T05:30:20.237Z,13.30
2022-10-06T05:32:50.611Z,13.30
2022-10-06T05:35:20.226Z,13.30
2022-10-06T05:37:49.320Z,13.30
2022-10-06T05:40:18.102Z,13.30
2022-10-06T05:42:46.663Z,13.40
2022-10-06T05:45:17.960Z,13.40
2022-10-06T05:47:48.091Z,13.50
2022-10-06T05:50:17.040Z,13.40
2022-10-06T05:52:46.254Z,13.40
2022-10-06T05:55:15.034Z,13.40
2022-10-06T05:57:44.006Z,13.40
2022-10-06T06:00:14.044Z,13.40
2022-10-06T06:02:45.394Z,13.40
2022-10-06T06:05:15.813Z,13.50
2022-10-06T06:07:47.198Z,13.50
2022-10-06T06:10:16.041Z,13.50
2022-10-06T06:12:44.685Z,13.50
2022-10-06T06:15:30.793Z,13.40
2022-10-06T06:18:01.688Z,13.40
2022-10-06T06:20:31.976Z,13.40
2022-10-06T06:23:00.666Z,13.50
2022-10-06T06:25:29.571Z,13.50
2022-10-06T06:28:01.502Z,13.50
2022-10-06T06:30:30.626Z,13.50
2022-10-06T06:33:00.488Z,13.50
2022-10-06T06:35:34.473Z,13.70
2022-10-06T06:38:03.237Z,14.00
2022-10-06T06:40:35.055Z,14.20
2022-10-06T06:43:03.656Z,14.40
2022-10-06T06:45:33.186Z,14.70
2022-10-06T06:48:02.521Z,15.10
2022-10-06T06:50:35.869Z,15.30
2022-10-06T06:53:04.781Z,15.40
2022-10-06T06:55:36.579Z,15.50
2022-10-06T06:58:05.372Z,15.50
2022-10-06T07:00:36.321Z,15.50
2022-10-06T07:03:06.429Z,15.40
2022-10-06T07:05:36.716Z,15.20
2022-10-06T07:08:05.485Z,14.80
2022-10-06T07:10:40.664Z,14.60
2022-10-06T07:13:09.360Z,14.70
2022-10-06T07:15:59.788Z,14.70
2022-10-06T07:18:46.392Z,14.60
2022-10-06T07:21:34.437Z,15.00
2022-10-06T07:24:20.576Z,15.40
2022-10-06T07:26:49.299Z,15.60
2022-10-06T07:29:18.346Z,16.00
2022-10-06T07:31:49.440Z,16.40
2022-10-06T07:34:18.355Z,16.40
2022-10-06T07:36:49.206Z,16.50
2022-10-06T07:39:21.541Z,16.60
2022-10-06T07:41:50.479Z,16.60
2022-10-06T07:44:19.139Z,16.70
2022-10-06T07:46:48.711Z,16.80
2022-10-06T07:49:17.810Z,16.80
2022-10-06T07:51:48.117Z,16.90
2022-10-06T07:54:16.873Z,17.00
2022-10-06T07:56:45.640Z,16.80
2022-10-06T07:59:14.378Z,16.90
2022-10-06T08:01:44.641Z,16.70
2022-10-06T08:04:13.959Z,16.60
2022-10-06T08:06:43.168Z,16.40
2022-10-06T08:09:13.324Z,16.10
2022-10-06T08:11:42.068Z,16.10
2022-10-06T08:14:11.604Z,15.80
2022-10-06T08:16:40.259Z,15.30
2022-10-06T08:19:09.015Z,15.10
2022-10-06T08:21:39.192Z,15.00
2022-10-06T08:24:08.142Z,15.00
2022-10-06T08:26:38.919Z,15.00
2022-10-06T08:29:07.935Z,15.00
2022-10-06T08:31:36.977Z,15.10
2022-10-06T08:34:12.136Z,15.10
2022-10-06T08:36:48.228Z,15.20
2022-10-06T08:39:34.355Z,15.30
2022-10-06T08:42:04.992Z,15.40
2022-10-06T08:44:41.628Z,15.50
2022-10-06T08:47:18.491Z,15.50
2022-10-06T08:49:49.502Z,15.60
2022-10-06T08:52:33.598Z,15.80
2022-10-06T08:55:14.061Z,16.10
2022-10-06T08:57:59.472Z,16.30
2022-10-06T09:00:33.967Z,17.00
2022-10-06T09:03:05.240Z,17.60
2022-10-06T09:05:37.486Z,17.70
2022-10-06T09:08:35.499Z,17.80
2022-10-06T09:11:27.744Z,17.70
2022-10-06T09:14:05.710Z,17.70
2022-10-06T09:16:41.214Z,17.80
2022-10-06T09:19:19.569Z,17.70
2022-10-06T09:21:51.853Z,17.40
2022-10-06T09:24:34.475Z,17.60
2022-10-06T09:27:19.771Z,17.80
2022-10-06T09:29:50.862Z,18.10
2022-10-06T09:32:22.236Z,17.90
2022-10-06T09:34:55.537Z,18.10
2022-10-06T09:37:25.219Z,18.30
2022-10-06T09:39:56.873Z,18.50
2022-10-06T09:42:32.919Z,18.30
2022-10-06T09:45:08.231Z,18.40
2022-10-06T09:47:45.387Z,18.20
2022-10-06T09:50:23.007Z,18.00
2022-10-06T09:53:19.027Z,18.40
2022-10-06T09:55:55.015Z,18.30
2022-10-06T09:58:32.802Z,18.40
2022-10-06T10:01:06.588Z,18.00
2022-10-06T10:04:18.721Z,18.10
2022-10-06T10:06:43.292Z,18.40
2022-10-06T10:09:25.707Z,18.90
2022-10-06T10:12:28.093Z,18.70
2022-10-06T10:15:04.157Z,18.70
2022-10-06T10:17:45.656Z,18.90
2022-10-06T10:20:41.692Z,18.40
2022-10-06T10:23:31.040Z,18.40
2022-10-06T10:26:14.653Z,18.50
2022-10-06T10:29:18.374Z,18.40
2022-10-06T10:32:05.692Z,18.30
2022-10-06T10:35:02.329Z,18.20
2022-10-06T10:37:43.919Z,18.20
2022-10-06T10:40:28.623Z,18.10
2022-10-06T10:43:12.362Z,17.40
2022-10-06T10:45:48.548Z,16.60
2022-10-06T10:48:25.495Z,16.20
2022-10-06T10:51:06.459Z,16.30
2022-10-06T10:53:49.655Z,16.60
2022-10-06T10:56:22.982Z,16.70
2022-10-06T10:58:55.727Z,17.40
2022-10-06T11:01:34.348Z,18.30
2022-10-06T11:04:04.368Z,19.10
2022-10-06T11:07:13.904Z,19.30
2022-10-06T11:09:56.066Z,18.50
2022-10-06T11:12:52.380Z,18.40
2022-10-06T11:15:39.943Z,18.40
2022-10-06T11:18:26.025Z,18.30
2022-10-06T11:21:01.188Z,18.00
2022-10-06T11:23:51.072Z,17.50
2022-10-06T11:26:52.391Z,17.40
2022-10-06T11:32:53.250Z,18.50
2022-10-06T11:35:26.969Z,18.70
2022-10-06T11:38:03.097Z,18.70
2022-10-06T11:40:54.867Z,18.40
2022-10-06T11:43:37.704Z,18.50
2022-10-06T11:46:28.342Z,18.60
2022-10-06T11:50:00.249Z,18.80
2022-10-06T11:52:54.356Z,18.70
2022-10-06T11:55:28.922Z,18.70
2022-10-06T11:58:41.490Z,18.90
2022-10-06T12:01:05.289Z,18.90
2022-10-06T12:04:06.539Z,18.80
2022-10-06T12:07:01.901Z,18.90
2022-10-06T12:09:52.673Z,19.20
2022-10-06T12:13:05.339Z,19.30
2022-10-06T12:19:26.139Z,18.80
2022-10-06T12:22:02.017Z,18.70
2022-10-06T12:24:47.286Z,18.60
2022-10-06T12:27:43.846Z,18.50
2022-10-06T12:30:24.755Z,18.90
2022-10-06T12:33:00.737Z,19.40
2022-10-06T12:35:36.248Z,19.10
2022-10-06T12:38:08.472Z,19.20
2022-10-06T12:40:56.062Z,18.90
2022-10-06T12:43:55.876Z,18.70
2022-10-06T12:46:45.139Z,18.30
2022-10-06T12:49:53.896Z,17.70
2022-10-06T12:52:41.060Z,18.00
2022-10-06T12:55:45.652Z,18.00
2022-10-06T12:58:21.803Z,18.00
2022-10-06T13:00:50.670Z,18.60
2022-10-06T13:03:25.894Z,19.00
2022-10-06T13:06:02.605Z,19.70
2022-10-06T13:08:34.102Z,20.20
2022-10-06T13:11:23.435Z,19.80
2022-10-06T13:13:55.107Z,19.70
2022-10-06T13:16:27.717Z,19.40
2022-10-06T13:18:59.469Z,19.30
2022-10-06T13:21:31.741Z,19.20
2022-10-06T13:24:00.678Z,18.60
2022-10-06T13:26:32.870Z,18.40
2022-10-06T13:29:02.387Z,18.40
2022-10-06T13:31:34.813Z,18.30
2022-10-06T13:34:07.334Z,17.90
2022-10-06T13:36:40.505Z,17.90
2022-10-06T13:39:15.954Z,18.10
2022-10-06T13:41:48.466Z,18.10
2022-10-06T13:44:34.969Z,18.40
2022-10-06T13:47:08.589Z,18.90
2022-10-06T13:49:47.653Z,19.50
2022-10-06T13:52:23.450Z,19.80
2022-10-06T13:54:56.431Z,19.70
2022-10-06T13:57:41.517Z,19.80
2022-10-06T14:00:21.458Z,19.90
2022-10-06T14:02:54.937Z,19.70
2022-10-06T14:05:33.323Z,19.80
2022-10-06T14:08:16.171Z,19.70
2022-10-06T14:10:52.049Z,19.70
2022-10-06T14:13:24.246Z,19.60
2022-10-06T14:15:56.220Z,19.40
2022-10-06T14:18:28.622Z,19.30
2022-10-06T14:20:58.485Z,19.10
2022-10-06T14:23:50.492Z,19.30
2022-10-06T14:26:21.452Z,19.40
2022-10-06T14:28:53.138Z,19.80
2022-10-06T14:31:22.630Z,20.00
2022-10-06T14:33:53.995Z,20.30
2022-10-06T14:36:27.420Z,20.50
2022-10-06T14:38:59.488Z,20.30
2022-10-06T14:41:29.796Z,20.20
2022-10-06T14:44:02.154Z,19.90
2022-10-06T14:46:32.187Z,19.20
2022-10-06T14:49:03.345Z,18.90
2022-10-06T14:51:36.908Z,19.00
2022-10-06T14:54:10.342Z,19.20
2022-10-06T14:56:41.061Z,19.60
2022-10-06T14:59:17.304Z,19.50
2022-10-06T15:01:50.859Z,19.10
2022-10-06T15:04:24.468Z,19.20
2022-10-06T15:07:11.758Z,19.10
2022-10-06T15:09:43.121Z,18.70
2022-10-06T15:12:15.424Z,18.30
2022-10-06T15:14:44.085Z,18.50
2022-10-06T15:17:15.657Z,18.60
2022-10-06T15:19:44.427Z,18.80
2022-10-06T15:22:16.864Z,18.90
2022-10-06T15:24:50.525Z,19.10
2022-10-06T15:30:12.146Z,18.60
2022-10-06T15:32:41.091Z,18.50
2022-10-06T15:35:11.467Z,18.70
2022-10-06T15:37:41.311Z,18.60
2022-10-06T15:40:15.190Z,18.30
2022-10-06T15:42:44.717Z,18.10
2022-10-06T15:45:13.670Z,18.00
2022-10-06T15:47:42.742Z,18.20
2022-10-06T15:50:18.711Z,18.20
2022-10-06T15:52:50.040Z,18.10
2022-10-06T15:55:20.598Z,17.90
2022-10-06T15:57:49.526Z,17.70
2022-10-06T16:00:19.008Z,17.40
2022-10-06T16:02:48.917Z,17.30
2022-10-06T16:05:37.812Z,17.10
2022-10-06T16:08:09.766Z,16.90
2022-10-06T16:10:40.262Z,16.80
2022-10-06T16:13:09.841Z,16.70
2022-10-06T16:15:38.813Z,16.50
2022-10-06T16:18:07.669Z,16.20
2022-10-06T16:20:36.766Z,15.80
2022-10-06T16:23:06.953Z,15.40
2022-10-06T16:25:42.219Z,15.10
2022-10-06T16:28:14.457Z,14.80
2022-10-06T16:30:43.643Z,14.60
2022-10-06T16:33:12.753Z,14.40
2022-10-06T16:35:42.479Z,14.20
2022-10-06T16:38:14.394Z,14.10
2022-10-06T16:40:44.292Z,14.00
2022-10-06T16:43:26.313Z,13.90
2022-10-06T16:46:03.884Z,13.90
2022-10-06T16:48:38.570Z,13.80
2022-10-06T16:51:14.853Z,13.70
2022-10-06T16:53:47.291Z,13.60
2022-10-06T16:56:23.129Z,13.50
2022-10-06T16:58:58.230Z,13.50
2022-10-06T17:01:31.955Z,13.50
2022-10-06T17:04:05.499Z,13.30
2022-10-06T17:06:41.313Z,13.10
2022-10-06T17:09:21.705Z,12.90
2022-10-06T17:11:53.411Z,12.70
2022-10-06T17:14:24.883Z,12.60
2022-10-06T17:16:59.898Z,12.50
2022-10-06T17:19:31.839Z,12.40
2022-10-06T17:22:02.019Z,12.20
2022-10-06T17:24:31.687Z,12.10
2022-10-06T17:27:01.463Z,12.10
2022-10-06T17:29:32.105Z,12.00
2022-10-06T17:32:01.315Z,11.90
2022-10-06T17:34:33.214Z,11.70
2022-10-06T17:37:03.968Z,11.60
2022-10-06T17:39:33.267Z,11.40
2022-10-06T17:42:02.248Z,11.20
2022-10-06T17:44:32.602Z,11.10
2022-10-06T17:47:02.467Z,11.10
2022-10-06T17:49:34.832Z,11.10
2022-10-06T17:52:06.862Z,11.20
2022-10-06T17:54:35.869Z,11.30
2022-10-06T17:57:05.624Z,11.30
2022-10-06T17:59:39.289Z,11.30
2022-10-06T18:02:14.397Z,11.30
2022-10-06T18:04:45.201Z,11.30
2022-10-06T18:07:14.685Z,11.20
2022-10-06T18:10:04.356Z,11.20
2022-10-06T18:12:38.904Z,11.20
2022-10-06T18:15:12.476Z,11.20
2022-10-06T18:17:41.619Z,11.10
2022-10-06T18:20:11.641Z,11.10
2022-10-06T18:22:40.636Z,11.00
2022-10-06T18:25:16.739Z,10.90
2022-10-06T18:27:48.028Z,10.80
2022-10-06T18:30:22.247Z,10.70
2022-10-06T18:38:37.264Z,10.80
2022-10-06T18:41:09.287Z,10.80
2022-10-06T18:43:38.288Z,10.80
2022-10-06T18:46:29.459Z,10.90
2022-10-06T18:49:00.534Z,10.80
2022-10-06T18:51:32.612Z,10.80
2022-10-06T18:54:04.134Z,10.80
2022-10-06T18:56:35.350Z,10.80
2022-10-06T18:59:09.392Z,10.80
2022-10-06T19:01:42.690Z,10.80
2022-10-06T19:04:14.264Z,10.70
2022-10-06T19:06:47.018Z,10.80
2022-10-06T19:09:18.179Z,10.80
2022-10-06T19:11:52.051Z,10.90
2022-10-06T19:14:25.612Z,10.90
2022-10-06T19:16:59.543Z,10.90
2022-10-06T19:19:31.720Z,10.90
2022-10-06T19:22:03.824Z,11.00
2022-10-06T19:24:37.317Z,10.90
2022-10-06T19:27:12.304Z,10.80
2022-10-06T19:29:46.148Z,10.80
2022-10-06T19:32:21.346Z,10.60
2022-10-06T19:34:50.211Z,10.50
2022-10-06T19:37:19.790Z,10.60
2022-10-06T19:39:50.294Z,10.50
2022-10-06T19:42:39.058Z,10.50
2022-10-06T19:45:11.931Z,10.50
2022-10-06T19:47:46.213Z,10.60
2022-10-06T19:50:17.804Z,10.60
2022-10-06T19:52:49.675Z,10.70
2022-10-06T19:55:23.229Z,10.70
2022-10-06T19:57:52.695Z,10.80
2022-10-06T20:00:21.720Z,10.80
2022-10-06T20:02:52.507Z,10.80
2022-10-06T20:05:21.695Z,10.90
2022-10-06T20:07:50.423Z,11.00
2022-10-06T20:10:19.069Z,11.10
2022-10-06T20:12:47.628Z,11.10
2022-10-06T20:15:16.597Z,11.10
2022-10-06T20:17:47.155Z,11.10
2022-10-06T20:20:18.935Z,11.10
2022-10-06T20:22:47.611Z,11.20
2022-10-06T20:25:16.697Z,11.10
2022-10-06T20:27:45.794Z,11.20
2022-10-06T20:30:15.017Z,11.20
2022-10-06T20:32:44.512Z,11.10
2022-10-06T20:35:13.448Z,11.10
2022-10-06T20:37:43.824Z,11.10
2022-10-06T20:40:33.250Z,11.10
2022-10-06T20:43:02.049Z,11.20
2022-10-06T20:45:31.305Z,11.10
2022-10-06T20:48:01.940Z,11.10
2022-10-06T20:50:32.090Z,11.10
2022-10-06T20:53:02.383Z,11.20
2022-10-06T20:55:31.199Z,11.20
2022-10-06T20:57:59.921Z,11.40
2022-10-06T21:00:28.940Z,11.50
2022-10-06T21:03:00.965Z,11.60
2022-10-06T21:05:33.353Z,11.60
2022-10-06T21:08:03.747Z,11.50
2022-10-06T21:10:33.047Z,11.50
2022-10-06T21:13:02.222Z,11.50
2022-10-06T21:15:31.072Z,11.40
2022-10-06T21:17:59.897Z,11.20
2022-10-06T21:20:28.692Z,11.30
2022-10-06T21:22:57.713Z,11.20
2022-10-06T21:25:27.892Z,11.10
2022-10-06T21:27:56.939Z,11.00
2022-10-06T21:30:25.688Z,10.90
2022-10-06T21:32:54.993Z,10.70
2022-10-06T21:35:24.273Z,10.60
2022-10-06T21:37:53.243Z,10.60
2022-10-06T21:40:22.245Z,10.60
2022-10-06T21:42:53.315Z,10.60
2022-10-06T21:45:24.634Z,10.60
2022-10-06T21:47:54.311Z,10.60
2022-10-06T21:50:23.291Z,10.70
2022-10-06T21:52:52.635Z,10.60
2022-10-06T21:55:21.557Z,10.50
2022-10-06T21:57:52.050Z,10.40
2022-10-06T22:00:21.350Z,10.50
2022-10-06T22:02:50.261Z,10.60
2022-10-06T22:05:19.578Z,10.50
2022-10-06T22:07:48.341Z,10.50
2022-10-06T22:10:17.510Z,10.40
2022-10-06T22:12:46.446Z,10.40
2022-10-06T22:15:16.985Z,10.30
2022-10-06T22:17:47.594Z,10.20
2022-10-06T22:20:16.491Z,10.10
2022-10-06T22:22:45.288Z,10.10
2022-10-06T22:25:14.310Z,10.00
2022-10-06T22:27:43.605Z,10.00
2022-10-06T22:30:14.094Z,10.10
2022-10-06T22:32:44.771Z,10.10
2022-10-06T22:35:14.070Z,10.10
2022-10-06T22:37:43.686Z,10.00
2022-10-06T22:40:13.224Z,10.00
2022-10-06T22:42:42.423Z,10.00
2022-10-06T22:45:12.764Z,10.00
2022-10-06T22:47:42.067Z,9.90
2022-10-06T22:50:15.482Z,10.00
2022-10-06T22:52:44.786Z,10.10
2022-10-06T22:55:14.650Z,10.00
2022-10-06T22:57:44.206Z,9.80
2022-10-06T23:00:15.560Z,9.70
2022-10-06T23:02:44.700Z,9.70
2022-10-06T23:05:15.468Z,9.60
2022-10-06T23:07:47.717Z,9.70
2022-10-06T23:10:17.257Z,9.60
2022-10-06T23:12:47.781Z,9.60
2022-10-06T23:15:17.623Z,9.50
2022-10-06T23:17:47.322Z,9.40
2022-10-06T23:20:19.452Z,9.40
2022-10-06T23:22:49.397Z,9.50
2022-10-06T23:25:23.726Z,9.40
2022-10-06T23:27:55.332Z,9.50
2022-10-06T23:30:24.285Z,9.50
2022-10-06T23:32:53.788Z,9.50
2022-10-06T23:35:24.344Z,9.50
2022-10-06T23:37:53.350Z,9.60
2022-10-06T23:40:22.356Z,9.50
2022-10-06T23:42:51.518Z,9.50
2022-10-06T23:45:21.040Z,9.40
2022-10-06T23:47:50.602Z,9.40
2022-10-06T23:50:19.477Z,9.40
2022-10-06T23:52:51.135Z,9.40
2022-10-06T23:55:20.593Z,9.40
2022-10-06T23:57:49.591Z,9.50
